ADDS METAR Data INFO
IDs: Format: Raw Decoded Include TAF

Data at: 0025 UTC 23 Oct 2017

KDED 230015Z AUTO 12006KT 10SM CLR 25/22 A3009 RMK AO2
KDED 222355Z AUTO 12005KT 10SM SCT100 26/22 A3009 RMK AO2
KDED 222335Z AUTO 12007KT 10SM SCT100 26/22 A3009 RMK AO2
KDED 222315Z AUTO 12009KT 10SM CLR 26/22 A3008 RMK AO2
KDED 222255Z AUTO 11008KT 10SM CLR 27/22 A3008 RMK AO2
KDED 222235Z AUTO 11008KT 10SM CLR 27/22 A3007 RMK AO2
KDED 222215Z AUTO 12008KT 10SM CLR 28/22 A3008 RMK AO2
KDED 222155Z AUTO 12010KT 10SM CLR 28/21 A3007 RMK AO2
KDED 222135Z AUTO 11008KT 10SM SCT100 29/21 A3007 RMK AO2
KDED 222115Z AUTO 13009KT 10SM SCT100 29/20 A3007 RMK AO2
KDED 222055Z AUTO 12011KT 10SM SCT100 30/20 A3007 RMK AO2
KDED 222035Z AUTO 13011KT 10SM SCT046 SCT090 31/21 A3007 RMK AO2
KDED 222015Z AUTO 13010KT 10SM SCT046 SCT050 31/21 A3007 RMK AO2
KDED 221955Z AUTO 12010KT 10SM SCT046 31/21 A3007 RMK AO2
KDED 221935Z AUTO 13010KT 10SM CLR 31/21 A3008 RMK AO2
KDED 221915Z AUTO 14012KT 10SM CLR 31/20 A3008 RMK AO2
KDED 221855Z AUTO 13010KT 10SM CLR 31/21 A3009 RMK AO2
KDED 221835Z AUTO 12008KT 10SM SCT100 30/23 A3010 RMK AO2
KDED 221815Z AUTO 04004KT 10SM SCT100 28/24 A3010 RMK AO2
KDED 221755Z AUTO 08007KT 10SM SCT060 BKN070 BKN100 27/24 A3011 RMK AO2 P0003
KDED 221735Z AUTO 08008KT 7SM -RA BR SCT028 SCT034 OVC050 25/24 A3012 RMK AO2 P0003
KDED 221715Z AUTO 10015KT 10SM SCT028 BKN065 29/23 A3013 RMK AO2
KDED 221655Z AUTO 10008KT 10SM BKN065 29/23 A3014 RMK AO2
KDED 221635Z AUTO 12006KT 10SM BKN055 BKN095 29/22 A3015 RMK AO2
KDED 221615Z AUTO 08006KT 10SM SCT050 BKN055 29/22 A3015 RMK AO2
KDED 221555Z AUTO 09011KT 10SM SCT085 28/22 A3016 RMK AO2
KDED 221535Z AUTO 10011KT 10SM SCT016 SCT027 BKN070 28/23 A3016 RMK AO2
KDED 221515Z AUTO 10013KT 10SM SCT016 BKN029 OVC055 26/23 A3017 RMK AO2
KDED 221455Z AUTO 10011KT 10SM SCT016 BKN050 OVC080 27/23 A3017 RMK AO2
KDED 221435Z AUTO 11010G14KT 10SM SCT016 SCT050 OVC080 26/23 A3017 RMK AO2
KDED 221415Z AUTO 09006KT 10SM SCT075 OVC090 26/24 A3016 RMK AO2
KDED 221355Z AUTO 09010KT 10SM SCT029 SCT043 BKN100 25/23 A3017 RMK AO2
KDED 221335Z AUTO 10009KT 10SM SCT033 SCT043 BKN090 25/23 A3016 RMK AO2
KDED 221315Z AUTO 10006KT 10SM SCT023 SCT030 BKN100 24/23 A3016 RMK AO2
KDED 221255Z AUTO 10005KT 10SM BKN023 24/23 A3016 RMK AO2
KDED 221235Z AUTO 04004KT 10SM CLR 24/22 A3015 RMK AO2 LTG DSNT SW
KDED 221215Z AUTO 05003KT 10SM CLR 23/22 A3014 RMK AO2
KDED 221155Z AUTO 04004KT 10SM CLR 23/22 A3014 RMK AO2
KDED 221135Z AUTO 04004KT 10SM CLR 22/22 A3013 RMK AO2
KDED 221115Z AUTO 04004KT 10SM CLR 22/22 A3013 RMK AO2
KDED 221055Z AUTO 02003KT 10SM CLR 22/22 A3012 RMK AO2
KDED 221035Z AUTO 36004KT 10SM CLR 22/21 A3012 RMK AO2
KDED 221015Z AUTO 00000KT 10SM SCT019 SCT030 22/22 A3012 RMK AO2
KDED 220955Z AUTO 02004KT 10SM SCT022 SCT030 22/21 A3012 RMK AO2
KDED 220935Z AUTO 02004KT 10SM CLR 22/21 A3012 RMK AO2
KDED 220915Z AUTO 04004KT 10SM CLR 22/21 A3011 RMK AO2
KDED 220855Z AUTO 05003KT 10SM CLR 23/22 A3011 RMK AO2
KDED 220835Z AUTO 05004KT 10SM CLR 23/22 A3011 RMK AO2
KDED 220815Z AUTO 07005KT 10SM CLR 22/21 A3011 RMK AO2
KDED 220755Z AUTO 05003KT 10SM CLR 23/21 A3011 RMK AO2
KDED 220735Z AUTO 06004KT 10SM CLR 23/21 A3011 RMK AO2
KDED 220715Z AUTO 05005KT 10SM CLR 22/22 A3011 RMK AO2
KDED 220655Z AUTO 06005KT 10SM CLR 22/21 A3012 RMK AO2
KDED 220635Z AUTO 06004KT 10SM CLR 22/21 A3012 RMK AO2
KDED 220615Z AUTO 05004KT 10SM SCT024 SCT030 SCT043 22/21 A3013 RMK AO2
KDED 220555Z AUTO 03004KT 10SM SCT024 BKN032 BKN043 22/21 A3014 RMK AO2
KDED 220535Z AUTO 03003KT 10SM BKN024 BKN032 22/21 A3015 RMK AO2
KDED 220515Z AUTO 02004KT 10SM SCT022 SCT030 SCT035 22/21 A3015 RMK AO2
KDED 220455Z AUTO 02005KT 10SM SCT070 22/21 A3016 RMK AO2
KDED 220435Z AUTO 03003KT 10SM BKN070 22/21 A3016 RMK AO2
KDED 220415Z AUTO 04003KT 10SM SCT041 BKN070 22/21 A3017 RMK AO2
KDED 220355Z AUTO 09004KT 10SM SCT028 BKN035 OVC070 23/21 A3018 RMK AO2 P0001
KDED 220335Z AUTO 15008KT 7SM RA SCT028 BKN039 OVC050 23/21 A3019 RMK AO2 P0001
KDED 220315Z AUTO 11009KT 10SM BKN050 BKN055 OVC100 24/21 A3018 RMK AO2
KDED 220255Z AUTO 09009KT 10SM SCT055 SCT070 SCT100 24/21 A3018 RMK AO2
KDED 220235Z AUTO 09006KT 10SM SCT055 23/22 A3017 RMK AO2
KDED 220215Z AUTO 05006KT 10SM BKN055 BKN085 23/22 A3016 RMK AO2
KDED 220155Z AUTO 06004KT 10SM SCT055 SCT085 23/22 A3016 RMK AO2
KDED 220135Z AUTO 08005KT 10SM SCT019 SCT025 SCT050 23/22 A3017 RMK AO2
KDED 220115Z AUTO 06003KT 10SM SCT019 SCT025 BKN043 23/21 A3017 RMK AO2
KDED 220055Z AUTO 07003KT 10SM CLR 23/21 A3016 RMK AO2
KDED 220035Z AUTO 06004KT 10SM CLR 23/21 A3016 RMK AO2
KDED 220015Z AUTO 06004KT 10SM CLR 23/21 A3015 RMK AO2
KDED 212355Z AUTO 06004KT 10SM CLR 23/21 A3015 RMK AO2
KDED 212335Z AUTO 05004KT 10SM CLR 23/21 A3015 RMK AO2
KDED 212315Z AUTO 03005KT 10SM CLR 23/21 A3015 RMK AO2
KDED 212255Z AUTO 05005KT 10SM SCT065 BKN075 24/21 A3015 RMK AO2
KDED 212235Z AUTO 03005KT 10SM SCT027 SCT055 OVC065 24/22 A3015 RMK AO2
KDED 212215Z AUTO 08010G16KT 10SM SCT027 SCT041 BKN070 25/21 A3015 RMK AO2
KDED 212155Z AUTO 06007KT 10SM SCT029 SCT045 BKN070 25/21 A3014 RMK AO2
KDED 212135Z AUTO 06010KT 10SM -RA SCT029 BKN042 BKN050 25/21 A3014 RMK AO2
KDED 212115Z AUTO 06012KT 10SM SCT046 SCT060 SCT070 27/21 A3014 RMK AO2
KDED 212055Z AUTO 06011KT 10SM SCT034 BKN046 BKN055 27/21 A3014 RMK AO2
KDED 212035Z AUTO 07013KT 10SM SCT032 BKN049 OVC070 27/20 A3014 RMK AO2
KDED 212015Z AUTO 07014G19KT 10SM BKN038 BKN046 OVC065 27/20 A3014 RMK AO2
KDED 211955Z AUTO 09011KT 10SM SCT040 BKN047 OVC060 28/19 A3014 RMK AO2
KDED 211935Z AUTO 06010KT 10SM BKN040 OVC050 28/20 A3014 RMK AO2
KDED 211915Z AUTO 11014G19KT 10SM BKN044 OVC060 29/19 A3014 RMK AO2
KDED 211855Z AUTO 10014G19KT 10SM BKN044 OVC050 27/18 A3015 RMK AO2
KDED 211835Z AUTO 07013G18KT 10SM BKN042 BKN055 28/19 A3015 RMK AO2
KDED 211815Z AUTO 10015KT 10SM BKN042 BKN055 28/19 A3015 RMK AO2
KDED 211755Z AUTO 08013G19KT 10SM SCT046 29/18 A3015 RMK AO2
KDED 211735Z AUTO 09016G22KT 10SM SCT044 SCT050 SCT060 28/18 A3016 RMK AO2
KDED 211715Z AUTO 10014G19KT 10SM BKN044 BKN050 29/18 A3017 RMK AO2
KDED 211655Z AUTO 08014G18KT 10SM SCT043 SCT050 28/18 A3018 RMK AO2
KDED 211635Z AUTO 09014KT 10SM SCT050 28/18 A3018 RMK AO2
KDED 211615Z AUTO 09012KT 10SM SCT050 28/17 A3018 RMK AO2
KDED 211555Z AUTO 11013G19KT 10SM SCT048 28/17 A3019 RMK AO2
KDED 211535Z AUTO 08014G21KT 10SM BKN046 28/17 A3018 RMK AO2
KDED 211515Z AUTO 07015KT 10SM SCT046 28/17 A3018 RMK AO2
KDED 211455Z AUTO 08014KT 10SM CLR 28/17 A3018 RMK AO2
KDED 211435Z AUTO 08015G19KT 10SM CLR 27/17 A3018 RMK AO2
KDED 211415Z AUTO 08011G21KT 10SM CLR 27/16 A3018 RMK AO2
KDED 211355Z AUTO 09013KT 10SM CLR 27/18 A3018 RMK AO2
KDED 211335Z AUTO 09012KT 10SM CLR 26/18 A3017 RMK AO2
KDED 211315Z AUTO 08009KT 10SM CLR 26/19 A3016 RMK AO2
KDED 211255Z AUTO 08006KT 10SM CLR 25/20 A3016 RMK AO2
KDED 211235Z AUTO 07005KT 10SM CLR 24/20 A3015 RMK AO2